Time;durP1;ratioP1;P1;durP2;ratioP2;P2;SDS_P1;SDS_P2;PMS_P1;PMS_P2;Temp;Humidity;BMP_temperature;BMP_pressure;BME280_temperature;BME280_humidity;BME280_pressure;Samples;Min_cycle;Max_cycle;Signal;HPM_P1;HPM_P2
2022/10/01 00:01:12;;;;;;;6.88;3.50;;;;;;;;;;4973363;28;20046;-61
2022/10/01 00:03:38;;;;;;;9.35;3.58;;;;;;;;;;4957311;28;20038;-61
2022/10/01 00:06:13;;;;;;;7.55;3.38;;;;;;;;;;4975695;28;20046;-71
2022/10/01 00:08:40;;;;;;;5.40;3.20;;;;;;;;;;4977077;28;20073;-70
2022/10/01 00:11:14;;;;;;;6.78;4.13;;;;;;;;;;4979728;28;20038;-71
2022/10/01 00:13:42;;;;;;;8.00;3.65;;;;;;;;;;4978010;28;20129;-68
2022/10/01 00:16:10;;;;;;;6.70;3.72;;;;;;;;;;4975335;28;20043;-70
2022/10/01 00:18:39;;;;;;;5.32;3.38;;;;;;;;;;4973727;28;20671;-71
2022/10/01 00:21:07;;;;;;;6.60;3.65;;;;;;;;;;4979181;28;20066;-70
2022/10/01 00:23:33;;;;;;;6.43;3.58;;;;;;;;;;4976718;28;20040;-70
2022/10/01 00:26:15;;;;;;;7.63;3.60;;;;;;;;;;4978125;28;20030;-70
2022/10/01 00:28:43;;;;;;;8.07;4.07;;;;;;;;;;4976631;28;20246;-71
2022/10/01 00:31:09;;;;;;;7.95;3.58;;;;;;;;;;4975644;28;20508;-70
2022/10/01 00:33:35;;;;;;;5.65;3.58;;;;;;;;;;4976436;28;20122;-70
2022/10/01 00:36:02;;;;;;;6.85;3.83;;;;;;;;;;4979697;28;20120;-70
2022/10/01 00:38:28;;;;;;;7.30;3.58;;;;;;;;;;4959446;28;20030;-69
2022/10/01 00:40:54;;;;;;;5.60;3.53;;;;;;;;;;4956045;28;20046;-70
2022/10/01 00:43:21;;;;;;;7.28;3.40;;;;;;;;;;4968581;28;20086;-70
2022/10/01 00:45:47;;;;;;;6.72;3.80;;;;;;;;;;4975928;28;20042;-70
2022/10/01 00:48:14;;;;;;;5.72;3.65;;;;;;;;;;4976034;28;20047;-70
2022/10/01 00:50:39;;;;;;;6.90;3.47;;;;;;;;;;4976985;28;20041;-71
2022/10/01 00:53:11;;;;;;;6.22;3.53;;;;;;;;;;4979915;28;20445;-72
2022/10/01 00:55:43;;;;;;;4.95;3.15;;;;;;;;;;4972605;28;20057;-71
2022/10/01 00:58:12;;;;;;;7.68;3.55;;;;;;;;;;4982213;28;20069;-71
2022/10/01 01:00:39;;;;;;;7.32;3.45;;;;;;;;;;4974535;28;20393;-71
2022/10/01 01:03:05;;;;;;;6.40;3.28;;;;;;;;;;4976111;28;20100;-71
2022/10/01 01:05:31;;;;;;;6.05;3.70;;;;;;;;;;4975506;28;20038;-71
2022/10/01 01:08:00;;;;;;;5.88;3.08;;;;;;;;;;4975332;28;20057;-71
2022/10/01 01:10:42;;;;;;;6.13;3.72;;;;;;;;;;4973298;28;20081;-70
2022/10/01 01:13:17;;;;;;;5.20;3.25;;;;;;;;;;4974830;28;20046;-70
2022/10/01 01:16:14;;;;;;;8.65;3.42;;;;;;;;;;4977805;28;20141;-70
2022/10/01 01:19:01;;;;;;;9.48;3.80;;;;;;;;;;4978333;28;20046;-70
2022/10/01 01:21:34;;;;;;;5.15;3.50;;;;;;;;;;4975870;28;20112;-70
2022/10/01 01:24:44;;;;;;;9.55;3.28;;;;;;;;;;4981402;28;20042;-71
2022/10/01 01:27:36;;;;;;;5.70;3.10;;;;;;;;;;4980329;28;20050;-70
2022/10/01 01:30:14;;;;;;;6.30;2.83;;;;;;;;;;4979002;28;20061;-71
2022/10/01 01:33:01;;;;;;;6.80;3.38;;;;;;;;;;4974636;28;20081;-70
2022/10/01 01:35:36;;;;;;;4.82;2.63;;;;;;;;;;4977338;28;20117;-70
2022/10/01 01:38:06;;;;;;;13.68;3.53;;;;;;;;;;4976412;28;20038;-70
2022/10/01 01:40:35;;;;;;;4.72;2.60;;;;;;;;;;4977770;28;20066;-73
2022/10/01 01:43:04;;;;;;;5.00;3.20;;;;;;;;;;4974041;28;20057;-70
2022/10/01 01:45:32;;;;;;;6.55;3.17;;;;;;;;;;4975912;28;20062;-70
2022/10/01 01:48:01;;;;;;;8.73;2.80;;;;;;;;;;4976374;28;20062;-70
2022/10/01 01:50:30;;;;;;;6.88;3.42;;;;;;;;;;4975815;28;20161;-70
2022/10/01 01:52:58;;;;;;;9.32;2.80;;;;;;;;;;4974570;28;20026;-71
2022/10/01 01:55:25;;;;;;;3.97;2.75;;;;;;;;;;4959655;28;20038;-71
2022/10/01 01:57:52;;;;;;;5.28;3.50;;;;;;;;;;4975985;28;20055;-72
2022/10/01 02:00:18;;;;;;;4.70;2.92;;;;;;;;;;4974890;28;20046;-71
2022/10/01 02:02:50;;;;;;;6.25;3.50;;;;;;;;;;4975444;28;22649;-71
2022/10/01 02:05:21;;;;;;;7.68;3.13;;;;;;;;;;4979914;28;20080;-71
2022/10/01 02:08:12;;;;;;;4.70;3.08;;;;;;;;;;4977082;28;20065;-71
2022/10/01 02:11:02;;;;;;;6.03;3.25;;;;;;;;;;4976295;28;20042;-71
2022/10/01 02:13:46;;;;;;;5.78;3.30;;;;;;;;;;4977690;28;20053;-70
2022/10/01 02:16:18;;;;;;;6.38;3.08;;;;;;;;;;4977597;28;20452;-72
2022/10/01 02:19:04;;;;;;;5.63;2.58;;;;;;;;;;4977230;28;20121;-71
2022/10/01 02:21:43;;;;;;;5.75;3.08;;;;;;;;;;4954568;28;20088;-71
2022/10/01 02:24:23;;;;;;;5.57;2.72;;;;;;;;;;4977995;28;20116;-71
2022/10/01 02:26:51;;;;;;;7.60;2.78;;;;;;;;;;4976323;28;20054;-72
2022/10/01 02:29:20;;;;;;;10.13;3.00;;;;;;;;;;4976353;28;20030;-71
2022/10/01 02:31:48;;;;;;;5.10;2.88;;;;;;;;;;4972649;28;20141;-71
2022/10/01 02:34:15;;;;;;;5.47;2.80;;;;;;;;;;4974150;28;20466;-71
2022/10/01 02:36:44;;;;;;;6.35;2.90;;;;;;;;;;4973630;28;20069;-71
2022/10/01 02:39:13;;;;;;;4.75;2.67;;;;;;;;;;4976468;28;20050;-71
2022/10/01 02:41:41;;;;;;;4.88;2.47;;;;;;;;;;4974681;28;20433;-70
2022/10/01 02:44:14;;;;;;;4.53;2.50;;;;;;;;;;4973575;28;20037;-70
2022/10/01 02:46:59;;;;;;;;;;;;;;;;;;4974938;28;20046;-70
2022/10/01 02:49:27;;;;;;;3.30;2.30;;;;;;;;;;4980732;28;19942;-70
2022/10/01 02:52:05;;;;;;;4.15;2.58;;;;;;;;;;4980116;28;20054;-70
2022/10/01 02:54:59;;;;;;;4.85;2.50;;;;;;;;;;4978703;28;20094;-70
2022/10/01 02:57:28;;;;;;;3.00;2.55;;;;;;;;;;4977941;28;20459;-67
2022/10/01 02:59:53;;;;;;;3.45;2.67;;;;;;;;;;4979900;28;20055;-67
2022/10/01 03:02:21;;;;;;;5.45;2.42;;;;;;;;;;4977951;28;20046;-67
2022/10/01 03:04:49;;;;;;;3.38;2.33;;;;;;;;;;4981694;28;20448;-67
2022/10/01 03:07:15;;;;;;;3.78;2.30;;;;;;;;;;4980207;28;20140;-57
2022/10/01 03:09:40;;;;;;;4.00;2.53;;;;;;;;;;4980566;28;20060;-57
2022/10/01 03:12:06;;;;;;;3.45;2.33;;;;;;;;;;4980394;28;20050;-56
2022/10/01 03:14:32;;;;;;;3.42;2.58;;;;;;;;;;4975217;28;20516;-56
2022/10/01 03:16:58;;;;;;;5.03;2.50;;;;;;;;;;4979530;28;20038;-59
2022/10/01 03:19:23;;;;;;;4.70;2.47;;;;;;;;;;4981227;28;20058;-57
2022/10/01 03:21:49;;;;;;;5.65;2.63;;;;;;;;;;4975460;28;20490;-58
2022/10/01 03:24:14;;;;;;;3.58;2.58;;;;;;;;;;4981010;28;20045;-56
2022/10/01 03:26:40;;;;;;;7.18;2.60;;;;;;;;;;4983688;28;20026;-53
2022/10/01 03:29:05;;;;;;;4.05;2.80;;;;;;;;;;4985085;28;20485;-57
2022/10/01 03:31:31;;;;;;;3.97;2.42;;;;;;;;;;4978220;28;20043;-54
2022/10/01 03:33:59;;;;;;;4.43;2.90;;;;;;;;;;4979203;28;20133;-57
2022/10/01 03:36:25;;;;;;;4.57;2.40;;;;;;;;;;4975818;28;20050;-55
2022/10/01 03:38:50;;;;;;;5.45;2.60;;;;;;;;;;4978135;28;20047;-57
2022/10/01 03:41:16;;;;;;;5.60;2.78;;;;;;;;;;4981470;28;20522;-57
2022/10/01 03:43:41;;;;;;;5.03;3.03;;;;;;;;;;4983287;28;20046;-56
2022/10/01 03:46:06;;;;;;;4.43;2.60;;;;;;;;;;4979415;28;20046;-57
2022/10/01 03:48:32;;;;;;;4.75;3.10;;;;;;;;;;4981275;28;20074;-53
2022/10/01 03:50:58;;;;;;;4.18;3.03;;;;;;;;;;4983351;28;20053;-53
2022/10/01 03:53:26;;;;;;;3.92;2.58;;;;;;;;;;4977139;28;20544;-59
2022/10/01 03:55:53;;;;;;;7.68;3.03;;;;;;;;;;4976252;28;20126;-59
2022/10/01 03:58:19;;;;;;;5.72;3.08;;;;;;;;;;4976409;28;20054;-58
2022/10/01 04:00:47;;;;;;;5.43;3.30;;;;;;;;;;4976575;28;20061;-56
2022/10/01 04:03:13;;;;;;;4.55;3.20;;;;;;;;;;4977610;28;20056;-55
2022/10/01 04:05:39;;;;;;;6.28;3.30;;;;;;;;;;4976065;28;20034;-63
2022/10/01 04:08:04;;;;;;;5.70;3.28;;;;;;;;;;4977537;28;20034;-67
2022/10/01 04:10:29;;;;;;;7.80;3.60;;;;;;;;;;4978567;28;20493;-62
2022/10/01 04:12:55;;;;;;;6.93;3.67;;;;;;;;;;4973995;28;20053;-62
2022/10/01 04:15:21;;;;;;;5.38;3.38;;;;;;;;;;4978736;28;20062;-61
2022/10/01 04:17:47;;;;;;;10.40;3.78;;;;;;;;;;4978760;28;20051;-62
2022/10/01 04:20:13;;;;;;;6.93;3.58;;;;;;;;;;4975239;28;20077;-61
2022/10/01 04:22:39;;;;;;;8.25;4.20;;;;;;;;;;4976318;28;20054;-61
2022/10/01 04:25:06;;;;;;;7.88;3.90;;;;;;;;;;4977863;28;20046;-61
2022/10/01 04:27:32;;;;;;;7.55;3.70;;;;;;;;;;4975121;28;20046;-61
2022/10/01 04:29:57;;;;;;;8.48;4.25;;;;;;;;;;4972243;28;20050;-61
2022/10/01 04:32:22;;;;;;;9.60;4.60;;;;;;;;;;4977330;28;20046;-62
2022/10/01 04:34:51;;;;;;;7.72;4.38;;;;;;;;;;4976184;28;20050;-61
2022/10/01 04:37:17;;;;;;;7.35;4.22;;;;;;;;;;4973340;28;20069;-61
2022/10/01 04:39:42;;;;;;;7.75;4.38;;;;;;;;;;4976646;28;20050;-61
2022/10/01 04:42:08;;;;;;;8.10;3.92;;;;;;;;;;4978703;28;20532;-61
2022/10/01 04:44:34;;;;;;;4.95;3.60;;;;;;;;;;4973997;28;20034;-61
2022/10/01 04:46:59;;;;;;;7.28;4.80;;;;;;;;;;4979169;28;20554;-61
2022/10/01 04:49:25;;;;;;;8.55;3.80;;;;;;;;;;4982158;28;20093;-61
2022/10/01 04:51:50;;;;;;;5.38;3.38;;;;;;;;;;4974230;28;21182;-61
2022/10/01 04:54:15;;;;;;;5.95;3.22;;;;;;;;;;4978787;28;20165;-61
2022/10/01 04:56:41;;;;;;;5.40;3.15;;;;;;;;;;4977591;28;20037;-61
2022/10/01 04:59:06;;;;;;;5.55;3.38;;;;;;;;;;4979459;28;20022;-61
2022/10/01 05:01:32;;;;;;;5.22;2.80;;;;;;;;;;4972514;28;20046;-60
2022/10/01 05:03:57;;;;;;;3.20;2.70;;;;;;;;;;4977119;28;20109;-60
2022/10/01 05:06:23;;;;;;;5.93;3.67;;;;;;;;;;4975815;28;20053;-60
2022/10/01 05:08:49;;;;;;;7.55;3.00;;;;;;;;;;4976288;28;20050;-59
2022/10/01 05:11:14;;;;;;;6.93;3.20;;;;;;;;;;4975783;28;20045;-61
2022/10/01 05:13:40;;;;;;;4.82;3.30;;;;;;;;;;4972676;28;20096;-62
2022/10/01 05:16:06;;;;;;;4.00;3.35;;;;;;;;;;4970537;28;20049;-65
2022/10/01 05:18:32;;;;;;;3.85;3.22;;;;;;;;;;4976847;28;20477;-65
2022/10/01 05:20:57;;;;;;;6.97;3.42;;;;;;;;;;4958117;28;20046;-65
2022/10/01 05:23:23;;;;;;;9.23;3.55;;;;;;;;;;4973935;28;20133;-66
2022/10/01 05:25:48;;;;;;;5.13;3.42;;;;;;;;;;4979492;28;20050;-67
2022/10/01 05:28:15;;;;;;;3.67;3.22;;;;;;;;;;4973088;28;20077;-67
2022/10/01 05:30:40;;;;;;;7.38;3.50;;;;;;;;;;4970808;28;20046;-66
2022/10/01 05:33:06;;;;;;;5.53;3.28;;;;;;;;;;4972845;28;20540;-65
2022/10/01 05:35:31;;;;;;;5.28;3.40;;;;;;;;;;4975879;28;20141;-66
2022/10/01 05:37:58;;;;;;;6.90;3.90;;;;;;;;;;4968690;28;20141;-64
2022/10/01 05:40:27;;;;;;;6.20;3.25;;;;;;;;;;4977188;28;20034;-65
2022/10/01 05:42:54;;;;;;;4.97;3.45;;;;;;;;;;4975649;28;20456;-65
2022/10/01 05:45:21;;;;;;;4.85;3.60;;;;;;;;;;4979256;28;20047;-67
2022/10/01 05:47:47;;;;;;;5.05;3.38;;;;;;;;;;4976702;28;20042;-64
2022/10/01 05:50:13;;;;;;;6.45;3.67;;;;;;;;;;4976030;28;20038;-64
2022/10/01 05:52:41;;;;;;;4.75;3.60;;;;;;;;;;4974229;28;20046;-65
2022/10/01 05:55:07;;;;;;;7.72;4.13;;;;;;;;;;4971795;28;20169;-66
2022/10/01 05:57:33;;;;;;;7.50;3.88;;;;;;;;;;4976942;28;20046;-66
2022/10/01 05:59:58;;;;;;;5.40;3.97;;;;;;;;;;4971508;28;20069;-66
2022/10/01 06:02:24;;;;;;;4.45;3.63;;;;;;;;;;4971658;28;20030;-64
2022/10/01 06:04:49;;;;;;;4.97;3.50;;;;;;;;;;4978281;28;20026;-66
2022/10/01 06:07:14;;;;;;;6.78;3.92;;;;;;;;;;4975128;28;20097;-67
2022/10/01 06:09:40;;;;;;;4.93;3.50;;;;;;;;;;4972405;28;20103;-67
2022/10/01 06:12:09;;;;;;;4.75;3.42;;;;;;;;;;4969607;28;20047;-59
2022/10/01 06:14:34;;;;;;;4.93;3.00;;;;;;;;;;4975420;28;20044;-59
2022/10/01 06:16:59;;;;;;;6.55;3.20;;;;;;;;;;4972909;28;20034;-61
2022/10/01 06:19:25;;;;;;;4.07;3.20;;;;;;;;;;4973690;28;20054;-61
2022/10/01 06:21:50;;;;;;;8.23;3.28;;;;;;;;;;4972486;28;20050;-61
2022/10/01 06:24:16;;;;;;;4.72;3.30;;;;;;;;;;4971012;28;20074;-59
2022/10/01 06:26:42;;;;;;;8.25;3.50;;;;;;;;;;4966922;28;20142;-59
2022/10/01 06:29:09;;;;;;;6.05;3.40;;;;;;;;;;4975353;28;20052;-61
2022/10/01 06:31:35;;;;;;;3.75;3.03;;;;;;;;;;4973903;28;20133;-59
2022/10/01 06:34:00;;;;;;;3.97;3.33;;;;;;;;;;4975480;28;20094;-59
2022/10/01 06:36:25;;;;;;;4.00;3.20;;;;;;;;;;4971847;28;20097;-60
2022/10/01 06:38:51;;;;;;;4.45;3.75;;;;;;;;;;4977912;28;20061;-60
2022/10/01 06:41:17;;;;;;;4.30;3.17;;;;;;;;;;4971981;28;20129;-64
2022/10/01 06:43:42;;;;;;;6.53;3.03;;;;;;;;;;4968653;28;20123;-59
2022/10/01 06:46:08;;;;;;;4.85;3.17;;;;;;;;;;4973260;28;20050;-59
2022/10/01 06:48:35;;;;;;;5.60;3.45;;;;;;;;;;4981997;28;20061;-59
2022/10/01 06:51:00;;;;;;;4.00;3.10;;;;;;;;;;4971166;28;20046;-60
2022/10/01 06:53:27;;;;;;;4.82;3.17;;;;;;;;;;4972312;28;20426;-60
2022/10/01 06:55:52;;;;;;;11.00;5.82;;;;;;;;;;4972140;28;20027;-58
2022/10/01 06:58:20;;;;;;;26.23;13.35;;;;;;;;;;4975240;28;20030;-59
2022/10/01 07:00:46;;;;;;;27.75;13.38;;;;;;;;;;4971909;28;20080;-59
2022/10/01 07:03:17;;;;;;;8.80;4.35;;;;;;;;;;4971511;28;20058;-61
2022/10/01 07:05:43;;;;;;;8.88;3.47;;;;;;;;;;4972091;28;20093;-58
2022/10/01 07:08:09;;;;;;;7.43;3.00;;;;;;;;;;4974863;28;20567;-59
2022/10/01 07:10:35;;;;;;;5.10;2.70;;;;;;;;;;4961287;28;22280;-54
2022/10/01 07:13:08;;;;;;;7.38;2.83;;;;;;;;;;4972192;28;20089;-57
2022/10/01 07:15:34;;;;;;;3.55;2.67;;;;;;;;;;4974694;28;20045;-56
2022/10/01 07:18:00;;;;;;;2.40;2.17;;;;;;;;;;4971697;28;20548;-55
2022/10/01 07:20:25;;;;;;;4.38;1.88;;;;;;;;;;4971866;28;20034;-58
2022/10/01 07:22:56;;;;;;;3.63;1.70;;;;;;;;;;4974069;28;20081;-55
2022/10/01 07:25:22;;;;;;;2.72;1.63;;;;;;;;;;4977753;28;20149;-57
2022/10/01 07:27:47;;;;;;;3.63;2.03;;;;;;;;;;4974927;28;20148;-55
2022/10/01 07:30:13;;;;;;;2.15;1.80;;;;;;;;;;4975737;28;20505;-55
2022/10/01 07:32:42;;;;;;;2.03;1.05;;;;;;;;;;4972710;28;20034;-56
2022/10/01 07:35:07;;;;;;;4.57;1.40;;;;;;;;;;4975519;28;20041;-57
2022/10/01 07:37:33;;;;;;;2.63;1.27;;;;;;;;;;4980735;28;20054;-58
2022/10/01 07:39:58;;;;;;;3.25;1.25;;;;;;;;;;4980650;28;20069;-58
2022/10/01 07:42:26;;;;;;;1.40;1.27;;;;;;;;;;4973723;28;20058;-57
2022/10/01 07:44:51;;;;;;;1.45;1.10;;;;;;;;;;4976522;28;20085;-56
2022/10/01 07:47:17;;;;;;;1.50;1.05;;;;;;;;;;4979518;28;20027;-56
2022/10/01 07:49:42;;;;;;;1.08;0.90;;;;;;;;;;4974297;28;20034;-58
2022/10/01 07:52:07;;;;;;;1.13;1.02;;;;;;;;;;4974275;28;20053;-56
2022/10/01 07:54:33;;;;;;;4.35;2.40;;;;;;;;;;4978988;28;20489;-54
2022/10/01 07:56:58;;;;;;;4.43;1.90;;;;;;;;;;4977204;28;20058;-55
2022/10/01 07:59:26;;;;;;;4.15;1.70;;;;;;;;;;4982511;28;20059;-58
2022/10/01 08:01:52;;;;;;;1.60;0.82;;;;;;;;;;4981682;28;20038;-59
2022/10/01 08:07:03;;;;;;;4.30;2.08;;;;;;;;;;4977221;28;20073;-61
2022/10/01 08:09:29;;;;;;;3.35;1.40;;;;;;;;;;4974231;28;20572;-59
2022/10/01 08:11:54;;;;;;;2.00;1.17;;;;;;;;;;4975893;28;20046;-58
2022/10/01 08:14:20;;;;;;;0.88;0.40;;;;;;;;;;4983548;28;20034;-58
2022/10/01 08:16:46;;;;;;;0.65;0.52;;;;;;;;;;4979594;28;20061;-59
2022/10/01 08:19:13;;;;;;;1.17;0.60;;;;;;;;;;4985520;28;20054;-61
2022/10/01 08:21:39;;;;;;;4.20;1.58;;;;;;;;;;4982378;28;20047;-68
2022/10/01 08:24:06;;;;;;;4.65;1.92;;;;;;;;;;4981142;28;20047;-68
2022/10/01 08:26:31;;;;;;;2.20;0.85;;;;;;;;;;4982277;28;20449;-68
2022/10/01 08:28:58;;;;;;;1.45;0.80;;;;;;;;;;4979225;28;20030;-69
2022/10/01 08:31:23;;;;;;;1.90;0.70;;;;;;;;;;4980957;28;20051;-69
2022/10/01 08:33:49;;;;;;;1.33;0.70;;;;;;;;;;4986239;28;20105;-68
2022/10/01 08:36:15;;;;;;;1.23;0.50;;;;;;;;;;4980904;28;20382;-68
2022/10/01 08:38:46;;;;;;;2.28;0.70;;;;;;;;;;4979192;28;20126;-69
2022/10/01 08:41:41;;;;;;;3.20;1.85;;;;;;;;;;4982370;28;20028;-69
2022/10/01 08:44:13;;;;;;;0.98;0.77;;;;;;;;;;4983172;28;20046;-67
2022/10/01 08:46:38;;;;;;;1.30;0.80;;;;;;;;;;4982088;28;20051;-68
2022/10/01 08:49:26;;;;;;;1.83;0.70;;;;;;;;;;4982216;28;20042;-68
2022/10/01 08:51:59;;;;;;;2.88;0.52;;;;;;;;;;4980977;28;20133;-68
2022/10/01 08:54:31;;;;;;;0.88;0.70;;;;;;;;;;4983089;28;20092;-68
2022/10/01 08:57:00;;;;;;;0.65;0.65;;;;;;;;;;4983760;28;20051;-68
2022/10/01 08:59:36;;;;;;;1.38;1.00;;;;;;;;;;4983760;28;20410;-67
2022/10/01 09:02:17;;;;;;;2.20;1.30;;;;;;;;;;4980267;28;20493;-68
2022/10/01 09:04:43;;;;;;;1.52;1.08;;;;;;;;;;4979472;28;20559;-69
2022/10/01 09:07:16;;;;;;;0.95;0.65;;;;;;;;;;4976941;28;20050;-65
2022/10/01 09:09:48;;;;;;;1.15;0.50;;;;;;;;;;4972337;28;20677;-64
2022/10/01 09:12:34;;;;;;;1.15;0.55;;;;;;;;;;4963878;28;20110;-65
2022/10/01 09:15:15;;;;;;;3.50;1.00;;;;;;;;;;4978010;28;20042;-65
2022/10/01 09:17:53;;;;;;;2.60;0.60;;;;;;;;;;4979943;28;20042;-64
2022/10/01 09:20:27;;;;;;;2.05;0.60;;;;;;;;;;4984436;28;20110;-63
2022/10/01 09:23:02;;;;;;;3.75;0.68;;;;;;;;;;4976312;28;20683;-65
2022/10/01 09:25:28;;;;;;;2.88;0.47;;;;;;;;;;4980596;28;20053;-65
2022/10/01 09:28:21;;;;;;;3.38;0.70;;;;;;;;;;4978213;28;20809;-64
2022/10/01 09:30:59;;;;;;;1.95;0.65;;;;;;;;;;4965830;28;20527;-65
2022/10/01 09:33:55;;;;;;;2.83;0.70;;;;;;;;;;4960305;28;20072;-63
2022/10/01 09:36:56;;;;;;;4.47;0.75;;;;;;;;;;4978597;28;20142;-64
2022/10/01 09:39:39;;;;;;;1.65;0.55;;;;;;;;;;4978274;28;20125;-64
2022/10/01 09:42:05;;;;;;;3.08;0.77;;;;;;;;;;4978459;28;22292;-67
2022/10/01 09:44:32;;;;;;;2.03;0.77;;;;;;;;;;4982979;28;20030;-65
2022/10/01 09:46:58;;;;;;;1.55;0.63;;;;;;;;;;4981338;28;20042;-65
2022/10/01 09:49:44;;;;;;;1.67;0.75;;;;;;;;;;4976220;28;20093;-65
2022/10/01 09:52:18;;;;;;;1.52;0.70;;;;;;;;;;4973896;28;20065;-66
2022/10/01 09:54:56;;;;;;;0.52;0.50;;;;;;;;;;4976304;28;20077;-65
2022/10/01 09:57:33;;;;;;;1.35;0.68;;;;;;;;;;4978129;28;20070;-61
2022/10/01 10:00:17;;;;;;;1.60;0.80;;;;;;;;;;4955446;28;20074;-61
2022/10/01 10:02:45;;;;;;;2.40;0.55;;;;;;;;;;4972150;28;20022;-59
2022/10/01 10:05:27;;;;;;;2.03;0.35;;;;;;;;;;4971901;28;21665;-61
2022/10/01 10:07:57;;;;;;;2.58;0.50;;;;;;;;;;4980145;28;20047;-61
2022/10/01 10:10:26;;;;;;;1.75;0.60;;;;;;;;;;4977899;28;21555;-56
2022/10/01 10:13:02;;;;;;;1.17;0.50;;;;;;;;;;4967583;28;20136;-61
2022/10/01 10:15:31;;;;;;;1.15;0.60;;;;;;;;;;4970127;28;20050;-60
2022/10/01 10:18:07;;;;;;;1.33;0.45;;;;;;;;;;4969246;28;20462;-57
2022/10/01 10:20:39;;;;;;;1.58;0.43;;;;;;;;;;4972730;28;20042;-62
2022/10/01 10:23:25;;;;;;;0.85;0.47;;;;;;;;;;4972927;28;20034;-61
2022/10/01 10:26:06;;;;;;;0.38;0.38;;;;;;;;;;4973863;28;20038;-59
2022/10/01 10:28:59;;;;;;;1.63;0.40;;;;;;;;;;4967823;28;20412;-60
2022/10/01 10:31:27;;;;;;;0.30;0.30;;;;;;;;;;4964885;28;22054;-59
2022/10/01 10:34:18;;;;;;;0.60;0.47;;;;;;;;;;4969329;28;20185;-59
2022/10/01 10:36:45;;;;;;;0.57;0.30;;;;;;;;;;4970011;28;20038;-59
2022/10/01 10:39:28;;;;;;;0.50;0.32;;;;;;;;;;4973341;28;20103;-58
2022/10/01 10:41:54;;;;;;;;;;;;;;;;;;4972166;28;20058;-59
2022/10/01 10:44:23;;;;;;;0.43;0.38;;;;;;;;;;4971738;28;19922;-59
2022/10/01 10:46:50;;;;;;;1.80;1.02;;;;;;;;;;4973050;28;20057;-58
2022/10/01 10:49:25;;;;;;;2.83;2.08;;;;;;;;;;4971728;28;20612;-60
2022/10/01 10:51:53;;;;;;;0.93;0.77;;;;;;;;;;4974814;28;20054;-62
2022/10/01 10:54:36;;;;;;;0.80;0.40;;;;;;;;;;4973771;28;20042;-58
2022/10/01 10:57:03;;;;;;;;;;;;;;;;;;4963395;28;20516;-59
2022/10/01 10:59:32;;;;;;;0.40;0.28;;;;;;;;;;4953092;28;19932;-55
2022/10/01 11:02:00;;;;;;;0.80;0.40;;;;;;;;;;4975393;28;20113;-60
2022/10/01 11:04:46;;;;;;;0.35;0.30;;;;;;;;;;4975308;28;20177;-60
2022/10/01 11:07:19;;;;;;;1.33;1.23;;;;;;;;;;4969101;28;20054;-60
2022/10/01 11:09:50;;;;;;;;;;;;;;;;;;4962339;28;20050;-59
2022/10/01 11:12:32;;;;;;;0.30;0.30;;;;;;;;;;4968436;28;19964;-60
2022/10/01 11:15:17;;;;;;;0.40;0.32;;;;;;;;;;4971488;28;20050;-60
2022/10/01 11:18:11;;;;;;;0.75;0.30;;;;;;;;;;4972818;28;20034;-56
2022/10/01 11:20:48;;;;;;;0.38;0.38;;;;;;;;;;4957576;28;20054;-57
2022/10/01 11:23:36;;;;;;;1.30;0.40;;;;;;;;;;4973784;28;20387;-60
2022/10/01 11:26:10;;;;;;;3.42;1.15;;;;;;;;;;4969652;28;20327;-57
2022/10/01 11:28:48;;;;;;;0.40;0.40;;;;;;;;;;4969568;28;20057;-57
2022/10/01 11:31:36;;;;;;;0.73;0.50;;;;;;;;;;4972128;28;20452;-59
2022/10/01 11:34:09;;;;;;;0.63;0.40;;;;;;;;;;4952226;28;20046;-57
2022/10/01 11:37:03;;;;;;;0.50;0.50;;;;;;;;;;4971492;28;20092;-56
2022/10/01 11:39:32;;;;;;;0.70;0.47;;;;;;;;;;4977291;28;20050;-55
2022/10/01 11:42:16;;;;;;;0.80;0.50;;;;;;;;;;4977802;28;20077;-57
2022/10/01 11:44:48;;;;;;;0.70;0.60;;;;;;;;;;4977028;28;20405;-59
2022/10/01 11:47:21;;;;;;;3.63;0.60;;;;;;;;;;4972465;28;20042;-59
2022/10/01 11:49:50;;;;;;;0.52;0.40;;;;;;;;;;4977361;28;20400;-58
2022/10/01 11:52:27;;;;;;;1.33;0.50;;;;;;;;;;4971555;28;20044;-57
2022/10/01 12:01:10;;;;;;;0.35;0.35;;;;;;;;;;4972162;28;20528;-56
2022/10/01 12:03:48;;;;;;;3.80;0.70;;;;;;;;;;4978256;28;20058;-58
2022/10/01 12:06:16;;;;;;;1.13;0.50;;;;;;;;;;4971394;28;20515;-59
2022/10/01 12:08:49;;;;;;;0.50;0.50;;;;;;;;;;4975078;28;20038;-59
2022/10/01 12:11:25;;;;;;;1.17;0.40;;;;;;;;;;4972304;28;20065;-59
2022/10/01 12:13:59;;;;;;;1.35;0.35;;;;;;;;;;4975843;28;20061;-59
2022/10/01 12:16:46;;;;;;;1.00;0.40;;;;;;;;;;4968615;28;20054;-60
2022/10/01 12:19:17;;;;;;;0.60;0.60;;;;;;;;;;4969336;28;20078;-60
2022/10/01 12:21:55;;;;;;;1.08;0.40;;;;;;;;;;4974598;28;21337;-59
2022/10/01 12:24:29;;;;;;;0.80;0.40;;;;;;;;;;4975127;28;20112;-59
2022/10/01 12:27:04;;;;;;;3.15;1.10;;;;;;;;;;4976063;28;20482;-58
2022/10/01 12:29:47;;;;;;;1.10;0.43;;;;;;;;;;4972559;28;20042;-59
2022/10/01 12:32:52;;;;;;;0.90;0.50;;;;;;;;;;4962439;28;20042;-59
2022/10/01 12:35:36;;;;;;;0.50;0.40;;;;;;;;;;4928765;28;20063;-59
2022/10/01 12:38:26;;;;;;;4.85;0.60;;;;;;;;;;4974869;28;20057;-59
2022/10/01 12:41:01;;;;;;;0.73;0.47;;;;;;;;;;4976794;28;20058;-59
2022/10/01 12:44:01;;;;;;;4.47;0.73;;;;;;;;;;4978222;28;20065;-61
2022/10/01 12:46:45;;;;;;;1.98;0.73;;;;;;;;;;4979338;28;20081;-59
2022/10/01 12:49:42;;;;;;;3.25;0.50;;;;;;;;;;4975180;28;21013;-59
2022/10/01 12:52:19;;;;;;;0.88;0.70;;;;;;;;;;4973431;28;20093;-59
2022/10/01 12:54:51;;;;;;;1.10;0.50;;;;;;;;;;4975369;28;20114;-57
2022/10/01 12:57:31;;;;;;;3.28;0.73;;;;;;;;;;4973809;28;20083;-61
2022/10/01 13:00:21;;;;;;;1.58;0.77;;;;;;;;;;4971007;28;20050;-59
2022/10/01 13:03:21;;;;;;;0.93;0.63;;;;;;;;;;4972168;28;20104;-60
2022/10/01 13:05:51;;;;;;;2.40;1.27;;;;;;;;;;4973290;28;20042;-60
2022/10/01 13:08:17;;;;;;;1.77;1.13;;;;;;;;;;4973608;28;20401;-61
2022/10/01 13:11:04;;;;;;;2.60;0.88;;;;;;;;;;4972806;28;20064;-60
2022/10/01 13:13:34;;;;;;;2.17;0.80;;;;;;;;;;4973750;28;20078;-59
2022/10/01 13:16:15;;;;;;;1.67;0.80;;;;;;;;;;4972052;28;20050;-58
2022/10/01 13:19:04;;;;;;;1.27;0.80;;;;;;;;;;4977134;28;20038;-57
2022/10/01 13:21:52;;;;;;;1.65;0.80;;;;;;;;;;4963705;28;20189;-57
2022/10/01 13:24:32;;;;;;;3.33;0.70;;;;;;;;;;4975547;28;20129;-58
2022/10/01 13:27:04;;;;;;;2.05;0.85;;;;;;;;;;4977534;28;20050;-57
2022/10/01 13:29:34;;;;;;;2.92;0.70;;;;;;;;;;4970818;28;20070;-58
2022/10/01 13:32:24;;;;;;;2.72;0.75;;;;;;;;;;4973292;28;20044;-59
2022/10/01 13:34:50;;;;;;;2.15;0.60;;;;;;;;;;4974726;28;20409;-59
2022/10/01 13:37:28;;;;;;;1.23;0.63;;;;;;;;;;4971535;28;20823;-58
2022/10/01 13:39:54;;;;;;;2.05;1.00;;;;;;;;;;4973060;28;20409;-60
2022/10/01 13:42:26;;;;;;;1.25;0.70;;;;;;;;;;4975534;28;20058;-59
2022/10/01 13:45:06;;;;;;;3.22;1.00;;;;;;;;;;4965557;28;20121;-62
2022/10/01 13:47:39;;;;;;;1.05;0.50;;;;;;;;;;4981623;28;20069;-58
2022/10/01 13:50:22;;;;;;;2.60;0.60;;;;;;;;;;4970195;28;20112;-59
2022/10/01 13:52:48;;;;;;;;;;;;;;;;;;4978024;28;20227;-58
2022/10/01 13:55:27;;;;;;;4.40;1.20;;;;;;;;;;4976909;28;19929;-61
2022/10/01 13:58:18;;;;;;;0.95;0.47;;;;;;;;;;4975209;28;20421;-58
2022/10/01 14:00:55;;;;;;;1.17;0.50;;;;;;;;;;4974779;28;20497;-61
2022/10/01 14:03:42;;;;;;;2.08;0.50;;;;;;;;;;4974980;28;20061;-61
2022/10/01 14:06:17;;;;;;;2.15;0.80;;;;;;;;;;4978945;28;20045;-66
2022/10/01 14:09:12;;;;;;;5.22;2.10;;;;;;;;;;4977184;28;20084;-66
2022/10/01 14:17:25;;;;;;;1.48;0.60;;;;;;;;;;4976806;28;20448;-66
2022/10/01 14:19:51;;;;;;;2.10;0.57;;;;;;;;;;4973289;28;20050;-66
2022/10/01 14:22:41;;;;;;;0.82;0.43;;;;;;;;;;4973778;28;20077;-66
2022/10/01 14:25:09;;;;;;;3.35;0.70;;;;;;;;;;4970853;28;20401;-66
2022/10/01 14:27:43;;;;;;;1.70;0.43;;;;;;;;;;4974887;28;20078;-67
2022/10/01 14:30:20;;;;;;;1.35;0.45;;;;;;;;;;4974542;28;21732;-64
2022/10/01 14:33:13;;;;;;;1.08;0.43;;;;;;;;;;4953490;28;20660;-66
2022/10/01 14:36:01;;;;;;;4.30;1.10;;;;;;;;;;4969061;28;20474;-66
2022/10/01 14:38:27;;;;;;;2.33;0.85;;;;;;;;;;4971772;28;20031;-66
2022/10/01 14:40:53;;;;;;;2.45;0.65;;;;;;;;;;4976115;28;20556;-66
2022/10/01 14:43:20;;;;;;;0.85;0.32;;;;;;;;;;4967188;28;20043;-67
2022/10/01 14:45:51;;;;;;;2.30;0.60;;;;;;;;;;4975723;28;20042;-67
2022/10/01 14:48:16;;;;;;;1.15;0.55;;;;;;;;;;4972139;28;20054;-66
2022/10/01 14:50:46;;;;;;;2.20;0.43;;;;;;;;;;4974865;28;20053;-67
2022/10/01 14:53:15;;;;;;;1.23;0.50;;;;;;;;;;4957546;28;20530;-68
2022/10/01 14:55:41;;;;;;;2.55;0.50;;;;;;;;;;4974213;28;20061;-68
2022/10/01 14:58:17;;;;;;;0.70;0.40;;;;;;;;;;4973490;28;20055;-67
2022/10/01 15:00:49;;;;;;;1.85;0.65;;;;;;;;;;4968353;28;20049;-67
2022/10/01 15:03:15;;;;;;;7.38;0.65;;;;;;;;;;4980033;28;21080;-64
2022/10/01 15:05:42;;;;;;;1.40;0.50;;;;;;;;;;4980687;28;20022;-63
2022/10/01 15:08:17;;;;;;;1.33;0.70;;;;;;;;;;4982018;28;20045;-67
2022/10/01 15:11:09;;;;;;;1.95;0.98;;;;;;;;;;4983504;28;20049;-59
2022/10/01 15:13:38;;;;;;;2.47;1.00;;;;;;;;;;4973353;28;20085;-56
2022/10/01 15:16:09;;;;;;;4.93;1.00;;;;;;;;;;4978396;28;20588;-56
2022/10/01 15:18:35;;;;;;;2.17;0.80;;;;;;;;;;4970758;28;20059;-59
2022/10/01 15:21:05;;;;;;;2.40;1.00;;;;;;;;;;4976794;28;20124;-56
2022/10/01 15:23:35;;;;;;;8.10;0.95;;;;;;;;;;4981862;28;20429;-57
2022/10/01 15:26:04;;;;;;;4.47;0.68;;;;;;;;;;4985733;28;20393;-56